sensor_id;sensor_type;location;lat;lon;timestamp;P1;durP1;ratioP1;P2;durP2;ratioP2
23360;SDS011;11852;50.082;18.554;2024-02-14T00:00:47;115.2;;;59.6;;
23360;SDS011;11852;50.082;18.554;2024-02-14T00:01:52;118.5;;;59.6;;
23360;SDS011;11852;50.082;18.554;2024-02-14T00:02:57;117.1;;;60.3;;
23360;SDS011;11852;50.082;18.554;2024-02-14T00:04:02;113.9;;;56.7;;
23360;SDS011;11852;50.082;18.554;2024-02-14T00:05:07;113.2;;;57.9;;
23360;SDS011;11852;50.082;18.554;2024-02-14T00:06:12;113.1;;;56.6;;
23360;SDS011;11852;50.082;18.554;2024-02-14T00:07:16;110.9;;;54.1;;
23360;SDS011;11852;50.082;18.554;2024-02-14T00:08:21;109.5;;;55.3;;
23360;SDS011;11852;50.082;18.554;2024-02-14T00:09:26;100.5;;;52.0;;
23360;SDS011;11852;50.082;18.554;2024-02-14T00:10:31;103.8;;;54.0;;
23360;SDS011;11852;50.082;18.554;2024-02-14T00:11:36;104.9;;;53.7;;
23360;SDS011;11852;50.082;18.554;2024-02-14T00:12:40;105.2;;;53.6;;
23360;SDS011;11852;50.082;18.554;2024-02-14T00:13:45;104.9;;;53.6;;
23360;SDS011;11852;50.082;18.554;2024-02-14T00:14:50;106.3;;;54.4;;
23360;SDS011;11852;50.082;18.554;2024-02-14T00:15:55;116.3;;;57.9;;
23360;SDS011;11852;50.082;18.554;2024-02-14T00:17:00;121.1;;;58.7;;
23360;SDS011;11852;50.082;18.554;2024-02-14T00:18:05;124.7;;;60.0;;
23360;SDS011;11852;50.082;18.554;2024-02-14T00:19:09;125.7;;;60.7;;
23360;SDS011;11852;50.082;18.554;2024-02-14T00:20:15;129.8;;;60.4;;
23360;SDS011;11852;50.082;18.554;2024-02-14T00:21:20;118.8;;;57.7;;
23360;SDS011;11852;50.082;18.554;2024-02-14T00:22:25;120.5;;;57.2;;
23360;SDS011;11852;50.082;18.554;2024-02-14T00:23:30;118.2;;;59.0;;
23360;SDS011;11852;50.082;18.554;2024-02-14T00:24:35;113.0;;;55.7;;
23360;SDS011;11852;50.082;18.554;2024-02-14T00:25:40;108.1;;;54.8;;
23360;SDS011;11852;50.082;18.554;2024-02-14T00:26:45;115.9;;;57.3;;
23360;SDS011;11852;50.082;18.554;2024-02-14T00:27:52;113.6;;;56.2;;
23360;SDS011;11852;50.082;18.554;2024-02-14T00:28:57;110.1;;;54.2;;
23360;SDS011;11852;50.082;18.554;2024-02-14T00:30:02;111.6;;;57.6;;
23360;SDS011;11852;50.082;18.554;2024-02-14T00:31:07;107.6;;;55.2;;
23360;SDS011;11852;50.082;18.554;2024-02-14T00:32:12;110.4;;;55.4;;
23360;SDS011;11852;50.082;18.554;2024-02-14T00:33:17;109.2;;;55.2;;
23360;SDS011;11852;50.082;18.554;2024-02-14T00:34:22;110.0;;;54.4;;
23360;SDS011;11852;50.082;18.554;2024-02-14T00:35:27;115.2;;;55.0;;
23360;SDS011;11852;50.082;18.554;2024-02-14T00:36:32;118.6;;;58.0;;
23360;SDS011;11852;50.082;18.554;2024-02-14T00:37:37;122.8;;;59.3;;
23360;SDS011;11852;50.082;18.554;2024-02-14T00:38:42;127.4;;;61.0;;
23360;SDS011;11852;50.082;18.554;2024-02-14T00:39:47;129.1;;;60.7;;
23360;SDS011;11852;50.082;18.554;2024-02-14T00:40:53;123.4;;;61.3;;
23360;SDS011;11852;50.082;18.554;2024-02-14T00:41:57;125.3;;;58.2;;
23360;SDS011;11852;50.082;18.554;2024-02-14T00:43:02;127.7;;;63.7;;
23360;SDS011;11852;50.082;18.554;2024-02-14T00:44:08;128.5;;;61.4;;
23360;SDS011;11852;50.082;18.554;2024-02-14T00:45:12;130.8;;;64.8;;
23360;SDS011;11852;50.082;18.554;2024-02-14T00:46:17;116.0;;;56.4;;
23360;SDS011;11852;50.082;18.554;2024-02-14T00:47:22;116.6;;;56.2;;
23360;SDS011;11852;50.082;18.554;2024-02-14T00:48:27;116.7;;;58.2;;
23360;SDS011;11852;50.082;18.554;2024-02-14T00:49:35;106.5;;;52.9;;
23360;SDS011;11852;50.082;18.554;2024-02-14T00:50:40;106.1;;;51.9;;
23360;SDS011;11852;50.082;18.554;2024-02-14T00:51:45;112.7;;;55.1;;
23360;SDS011;11852;50.082;18.554;2024-02-14T00:52:50;108.8;;;53.8;;
23360;SDS011;11852;50.082;18.554;2024-02-14T00:53:55;105.4;;;53.2;;
23360;SDS011;11852;50.082;18.554;2024-02-14T00:55:00;104.4;;;53.0;;
23360;SDS011;11852;50.082;18.554;2024-02-14T00:56:05;109.7;;;53.2;;
23360;SDS011;11852;50.082;18.554;2024-02-14T00:57:10;114.0;;;54.1;;
23360;SDS011;11852;50.082;18.554;2024-02-14T00:58:15;104.3;;;54.4;;
23360;SDS011;11852;50.082;18.554;2024-02-14T00:59:20;105.7;;;54.6;;
23360;SDS011;11852;50.082;18.554;2024-02-14T01:00:25;108.9;;;55.5;;
23360;SDS011;11852;50.082;18.554;2024-02-14T01:01:30;109.1;;;55.5;;
23360;SDS011;11852;50.082;18.554;2024-02-14T01:02:35;107.9;;;53.8;;
23360;SDS011;11852;50.082;18.554;2024-02-14T01:03:41;102.5;;;52.7;;
23360;SDS011;11852;50.082;18.554;2024-02-14T01:04:46;99.3;;;50.0;;
23360;SDS011;11852;50.082;18.554;2024-02-14T01:05:51;95.9;;;49.7;;
23360;SDS011;11852;50.082;18.554;2024-02-14T01:06:56;95.2;;;45.9;;
23360;SDS011;11852;50.082;18.554;2024-02-14T01:08:01;91.4;;;46.2;;
23360;SDS011;11852;50.082;18.554;2024-02-14T01:09:07;84.6;;;44.2;;
23360;SDS011;11852;50.082;18.554;2024-02-14T01:10:12;91.7;;;46.3;;
23360;SDS011;11852;50.082;18.554;2024-02-14T01:11:16;91.9;;;45.6;;
23360;SDS011;11852;50.082;18.554;2024-02-14T01:12:21;94.3;;;47.6;;
23360;SDS011;11852;50.082;18.554;2024-02-14T01:13:26;93.1;;;47.1;;
23360;SDS011;11852;50.082;18.554;2024-02-14T01:14:31;87.1;;;45.1;;
23360;SDS011;11852;50.082;18.554;2024-02-14T01:15:37;84.8;;;43.9;;
23360;SDS011;11852;50.082;18.554;2024-02-14T01:16:45;85.8;;;45.5;;
23360;SDS011;11852;50.082;18.554;2024-02-14T01:17:49;88.7;;;47.1;;
23360;SDS011;11852;50.082;18.554;2024-02-14T01:18:57;86.4;;;45.3;;
23360;SDS011;11852;50.082;18.554;2024-02-14T01:20:02;83.7;;;44.0;;
23360;SDS011;11852;50.082;18.554;2024-02-14T01:21:07;88.1;;;44.4;;
23360;SDS011;11852;50.082;18.554;2024-02-14T01:22:12;84.6;;;44.1;;
23360;SDS011;11852;50.082;18.554;2024-02-14T01:23:16;89.5;;;45.0;;
23360;SDS011;11852;50.082;18.554;2024-02-14T01:24:21;82.8;;;43.0;;
23360;SDS011;11852;50.082;18.554;2024-02-14T01:25:26;81.1;;;41.8;;
23360;SDS011;11852;50.082;18.554;2024-02-14T01:26:31;80.4;;;41.8;;
23360;SDS011;11852;50.082;18.554;2024-02-14T01:27:35;76.6;;;40.0;;
23360;SDS011;11852;50.082;18.554;2024-02-14T01:28:40;73.7;;;39.9;;
23360;SDS011;11852;50.082;18.554;2024-02-14T01:29:45;81.3;;;42.1;;
23360;SDS011;11852;50.082;18.554;2024-02-14T01:30:50;74.3;;;39.7;;
23360;SDS011;11852;50.082;18.554;2024-02-14T01:31:54;77.8;;;41.0;;
23360;SDS011;11852;50.082;18.554;2024-02-14T01:32:59;77.7;;;40.7;;
23360;SDS011;11852;50.082;18.554;2024-02-14T01:34:04;74.0;;;39.4;;
23360;SDS011;11852;50.082;18.554;2024-02-14T01:35:09;76.0;;;40.7;;
23360;SDS011;11852;50.082;18.554;2024-02-14T01:36:14;72.6;;;38.5;;
23360;SDS011;11852;50.082;18.554;2024-02-14T01:37:18;71.8;;;38.7;;
23360;SDS011;11852;50.082;18.554;2024-02-14T01:38:23;72.3;;;39.8;;
23360;SDS011;11852;50.082;18.554;2024-02-14T01:39:28;74.3;;;39.3;;
23360;SDS011;11852;50.082;18.554;2024-02-14T01:40:32;71.9;;;38.9;;
23360;SDS011;11852;50.082;18.554;2024-02-14T01:41:38;67.5;;;38.0;;
23360;SDS011;11852;50.082;18.554;2024-02-14T01:42:42;73.3;;;39.6;;
23360;SDS011;11852;50.082;18.554;2024-02-14T01:43:47;68.2;;;37.7;;
23360;SDS011;11852;50.082;18.554;2024-02-14T01:44:52;66.5;;;37.3;;
23360;SDS011;11852;50.082;18.554;2024-02-14T01:46:04;66.5;;;37.1;;
23360;SDS011;11852;50.082;18.554;2024-02-14T01:47:04;70.7;;;38.4;;
23360;SDS011;11852;50.082;18.554;2024-02-14T01:48:09;68.8;;;38.3;;
23360;SDS011;11852;50.082;18.554;2024-02-14T01:49:14;66.8;;;36.9;;
23360;SDS011;11852;50.082;18.554;2024-02-14T01:50:18;66.4;;;37.9;;
23360;SDS011;11852;50.082;18.554;2024-02-14T01:51:23;65.0;;;36.7;;
23360;SDS011;11852;50.082;18.554;2024-02-14T01:52:28;64.3;;;35.3;;
23360;SDS011;11852;50.082;18.554;2024-02-14T01:53:33;68.5;;;36.3;;
23360;SDS011;11852;50.082;18.554;2024-02-14T01:54:38;62.4;;;36.2;;
23360;SDS011;11852;50.082;18.554;2024-02-14T01:55:42;63.5;;;36.4;;
23360;SDS011;11852;50.082;18.554;2024-02-14T01:56:47;64.8;;;35.9;;
23360;SDS011;11852;50.082;18.554;2024-02-14T01:57:52;58.3;;;33.5;;
23360;SDS011;11852;50.082;18.554;2024-02-14T01:58:57;62.1;;;35.8;;
23360;SDS011;11852;50.082;18.554;2024-02-14T02:00:02;59.7;;;34.1;;
23360;SDS011;11852;50.082;18.554;2024-02-14T02:01:06;60.1;;;33.9;;
23360;SDS011;11852;50.082;18.554;2024-02-14T02:02:11;61.7;;;35.9;;
23360;SDS011;11852;50.082;18.554;2024-02-14T02:03:16;61.0;;;35.1;;
23360;SDS011;11852;50.082;18.554;2024-02-14T02:04:21;59.4;;;34.4;;
23360;SDS011;11852;50.082;18.554;2024-02-14T02:05:25;61.3;;;34.4;;
23360;SDS011;11852;50.082;18.554;2024-02-14T02:06:30;59.2;;;34.3;;
23360;SDS011;11852;50.082;18.554;2024-02-14T02:07:35;57.0;;;32.6;;
23360;SDS011;11852;50.082;18.554;2024-02-14T02:08:41;58.7;;;34.0;;
23360;SDS011;11852;50.082;18.554;2024-02-14T02:09:45;60.9;;;34.7;;
23360;SDS011;11852;50.082;18.554;2024-02-14T02:10:49;59.5;;;35.1;;
23360;SDS011;11852;50.082;18.554;2024-02-14T02:11:54;60.2;;;34.4;;
23360;SDS011;11852;50.082;18.554;2024-02-14T02:12:59;57.0;;;33.3;;
23360;SDS011;11852;50.082;18.554;2024-02-14T02:14:04;59.8;;;34.3;;
23360;SDS011;11852;50.082;18.554;2024-02-14T02:15:11;60.4;;;34.5;;
23360;SDS011;11852;50.082;18.554;2024-02-14T02:16:16;61.5;;;34.0;;
23360;SDS011;11852;50.082;18.554;2024-02-14T02:17:21;56.6;;;33.0;;
23360;SDS011;11852;50.082;18.554;2024-02-14T02:18:26;59.3;;;35.0;;
23360;SDS011;11852;50.082;18.554;2024-02-14T02:19:30;53.9;;;32.6;;
23360;SDS011;11852;50.082;18.554;2024-02-14T02:20:35;58.7;;;33.5;;
23360;SDS011;11852;50.082;18.554;2024-02-14T02:21:41;56.3;;;34.2;;
23360;SDS011;11852;50.082;18.554;2024-02-14T02:22:48;56.3;;;32.4;;
23360;SDS011;11852;50.082;18.554;2024-02-14T02:23:52;61.8;;;34.6;;
23360;SDS011;11852;50.082;18.554;2024-02-14T02:24:57;58.1;;;33.8;;
23360;SDS011;11852;50.082;18.554;2024-02-14T02:26:02;60.0;;;35.0;;
23360;SDS011;11852;50.082;18.554;2024-02-14T02:27:07;59.2;;;33.9;;
23360;SDS011;11852;50.082;18.554;2024-02-14T02:28:12;61.2;;;36.0;;
23360;SDS011;11852;50.082;18.554;2024-02-14T02:29:16;64.4;;;37.7;;
23360;SDS011;11852;50.082;18.554;2024-02-14T02:30:21;60.8;;;35.4;;
23360;SDS011;11852;50.082;18.554;2024-02-14T02:31:26;62.9;;;37.4;;
23360;SDS011;11852;50.082;18.554;2024-02-14T02:32:30;66.3;;;38.8;;
23360;SDS011;11852;50.082;18.554;2024-02-14T02:33:35;65.8;;;37.7;;
23360;SDS011;11852;50.082;18.554;2024-02-14T02:34:40;68.1;;;37.9;;
23360;SDS011;11852;50.082;18.554;2024-02-14T02:35:45;68.2;;;39.6;;
23360;SDS011;11852;50.082;18.554;2024-02-14T02:36:49;66.9;;;36.7;;
23360;SDS011;11852;50.082;18.554;2024-02-14T02:37:54;66.4;;;37.8;;
23360;SDS011;11852;50.082;18.554;2024-02-14T02:38:59;67.2;;;38.6;;
23360;SDS011;11852;50.082;18.554;2024-02-14T02:40:04;64.9;;;36.8;;
23360;SDS011;11852;50.082;18.554;2024-02-14T02:41:09;66.0;;;38.9;;
23360;SDS011;11852;50.082;18.554;2024-02-14T02:42:14;66.9;;;37.5;;
23360;SDS011;11852;50.082;18.554;2024-02-14T02:43:18;64.5;;;38.1;;
23360;SDS011;11852;50.082;18.554;2024-02-14T02:44:23;65.0;;;38.0;;
23360;SDS011;11852;50.082;18.554;2024-02-14T02:45:28;64.1;;;36.8;;
23360;SDS011;11852;50.082;18.554;2024-02-14T02:46:33;63.1;;;36.3;;
23360;SDS011;11852;50.082;18.554;2024-02-14T02:47:37;61.4;;;34.6;;
23360;SDS011;11852;50.082;18.554;2024-02-14T02:48:42;62.9;;;36.9;;
23360;SDS011;11852;50.082;18.554;2024-02-14T02:49:47;57.9;;;34.1;;
23360;SDS011;11852;50.082;18.554;2024-02-14T02:50:52;58.9;;;35.0;;
23360;SDS011;11852;50.082;18.554;2024-02-14T02:51:56;55.8;;;32.0;;
23360;SDS011;11852;50.082;18.554;2024-02-14T02:53:04;57.7;;;33.8;;
23360;SDS011;11852;50.082;18.554;2024-02-14T02:54:09;59.6;;;34.9;;
23360;SDS011;11852;50.082;18.554;2024-02-14T02:55:13;56.5;;;33.2;;
23360;SDS011;11852;50.082;18.554;2024-02-14T02:56:18;56.9;;;31.8;;
23360;SDS011;11852;50.082;18.554;2024-02-14T02:57:23;56.6;;;32.9;;
23360;SDS011;11852;50.082;18.554;2024-02-14T02:58:28;55.2;;;32.4;;
23360;SDS011;11852;50.082;18.554;2024-02-14T02:59:33;58.7;;;32.4;;
23360;SDS011;11852;50.082;18.554;2024-02-14T03:00:37;59.4;;;33.6;;
23360;SDS011;11852;50.082;18.554;2024-02-14T03:01:42;54.9;;;33.6;;
23360;SDS011;11852;50.082;18.554;2024-02-14T03:02:47;54.4;;;32.4;;
23360;SDS011;11852;50.082;18.554;2024-02-14T03:03:52;56.9;;;32.2;;
23360;SDS011;11852;50.082;18.554;2024-02-14T03:04:56;58.3;;;32.7;;
23360;SDS011;11852;50.082;18.554;2024-02-14T03:06:03;58.7;;;33.4;;
23360;SDS011;11852;50.082;18.554;2024-02-14T03:07:07;58.5;;;33.4;;
23360;SDS011;11852;50.082;18.554;2024-02-14T03:08:14;60.4;;;32.7;;
23360;SDS011;11852;50.082;18.554;2024-02-14T03:09:19;58.7;;;34.0;;
23360;SDS011;11852;50.082;18.554;2024-02-14T03:10:23;58.0;;;34.3;;
23360;SDS011;11852;50.082;18.554;2024-02-14T03:11:28;60.4;;;33.2;;
23360;SDS011;11852;50.082;18.554;2024-02-14T03:12:33;52.9;;;30.6;;
23360;SDS011;11852;50.082;18.554;2024-02-14T03:13:38;53.2;;;32.6;;
23360;SDS011;11852;50.082;18.554;2024-02-14T03:14:43;54.5;;;34.0;;
23360;SDS011;11852;50.082;18.554;2024-02-14T03:15:48;56.5;;;32.8;;
23360;SDS011;11852;50.082;18.554;2024-02-14T03:16:53;50.4;;;31.4;;
23360;SDS011;11852;50.082;18.554;2024-02-14T03:17:59;58.4;;;34.8;;
23360;SDS011;11852;50.082;18.554;2024-02-14T03:19:04;58.3;;;34.3;;
23360;SDS011;11852;50.082;18.554;2024-02-14T03:20:14;61.0;;;34.0;;
23360;SDS011;11852;50.082;18.554;2024-02-14T03:21:19;59.0;;;35.2;;
23360;SDS011;11852;50.082;18.554;2024-02-14T03:22:24;61.2;;;36.0;;
23360;SDS011;11852;50.082;18.554;2024-02-14T03:23:29;59.1;;;35.7;;
23360;SDS011;11852;50.082;18.554;2024-02-14T03:24:34;62.0;;;36.1;;
23360;SDS011;11852;50.082;18.554;2024-02-14T03:25:41;60.6;;;36.1;;
23360;SDS011;11852;50.082;18.554;2024-02-14T03:26:46;59.1;;;35.2;;
23360;SDS011;11852;50.082;18.554;2024-02-14T03:27:51;62.9;;;36.4;;
23360;SDS011;11852;50.082;18.554;2024-02-14T03:28:56;62.4;;;37.5;;
23360;SDS011;11852;50.082;18.554;2024-02-14T03:30:01;60.4;;;36.3;;
23360;SDS011;11852;50.082;18.554;2024-02-14T03:31:06;60.3;;;35.1;;
23360;SDS011;11852;50.082;18.554;2024-02-14T03:32:11;57.9;;;34.4;;
23360;SDS011;11852;50.082;18.554;2024-02-14T03:33:16;57.9;;;33.2;;
23360;SDS011;11852;50.082;18.554;2024-02-14T03:34:21;56.0;;;32.9;;
23360;SDS011;11852;50.082;18.554;2024-02-14T03:35:26;54.0;;;31.9;;
23360;SDS011;11852;50.082;18.554;2024-02-14T03:36:31;54.1;;;33.6;;
23360;SDS011;11852;50.082;18.554;2024-02-14T03:37:37;54.0;;;32.2;;
23360;SDS011;11852;50.082;18.554;2024-02-14T03:38:41;54.1;;;31.2;;
23360;SDS011;11852;50.082;18.554;2024-02-14T03:39:47;52.1;;;31.7;;
23360;SDS011;11852;50.082;18.554;2024-02-14T03:40:52;52.2;;;32.0;;
23360;SDS011;11852;50.082;18.554;2024-02-14T03:41:57;50.9;;;30.4;;
23360;SDS011;11852;50.082;18.554;2024-02-14T03:43:02;53.6;;;31.3;;
23360;SDS011;11852;50.082;18.554;2024-02-14T03:44:07;52.7;;;32.4;;
23360;SDS011;11852;50.082;18.554;2024-02-14T03:45:12;53.1;;;31.1;;
23360;SDS011;11852;50.082;18.554;2024-02-14T03:46:16;47.6;;;30.1;;
23360;SDS011;11852;50.082;18.554;2024-02-14T03:47:21;50.9;;;29.5;;
23360;SDS011;11852;50.082;18.554;2024-02-14T03:48:27;50.2;;;30.5;;
23360;SDS011;11852;50.082;18.554;2024-02-14T03:49:35;53.0;;;31.8;;
23360;SDS011;11852;50.082;18.554;2024-02-14T03:50:40;49.8;;;30.2;;
23360;SDS011;11852;50.082;18.554;2024-02-14T03:51:45;50.7;;;30.7;;
23360;SDS011;11852;50.082;18.554;2024-02-14T03:52:50;50.4;;;31.6;;
23360;SDS011;11852;50.082;18.554;2024-02-14T03:53:55;48.8;;;30.0;;
23360;SDS011;11852;50.082;18.554;2024-02-14T03:55:00;49.3;;;29.7;;
23360;SDS011;11852;50.082;18.554;2024-02-14T03:56:05;45.6;;;29.2;;
23360;SDS011;11852;50.082;18.554;2024-02-14T03:57:11;47.9;;;29.8;;
23360;SDS011;11852;50.082;18.554;2024-02-14T03:58:16;44.5;;;27.6;;
23360;SDS011;11852;50.082;18.554;2024-02-14T03:59:21;45.5;;;27.9;;
23360;SDS011;11852;50.082;18.554;2024-02-14T04:00:26;44.2;;;27.5;;
23360;SDS011;11852;50.082;18.554;2024-02-14T04:01:31;46.0;;;28.3;;
23360;SDS011;11852;50.082;18.554;2024-02-14T04:02:36;43.5;;;27.2;;
23360;SDS011;11852;50.082;18.554;2024-02-14T04:03:41;43.7;;;26.0;;
23360;SDS011;11852;50.082;18.554;2024-02-14T04:04:46;44.8;;;28.9;;
23360;SDS011;11852;50.082;18.554;2024-02-14T04:05:51;46.8;;;28.0;;
23360;SDS011;11852;50.082;18.554;2024-02-14T04:06:56;46.6;;;28.0;;
23360;SDS011;11852;50.082;18.554;2024-02-14T04:08:02;49.4;;;29.3;;
23360;SDS011;11852;50.082;18.554;2024-02-14T04:09:07;45.3;;;28.7;;
23360;SDS011;11852;50.082;18.554;2024-02-14T04:10:41;45.3;;;28.7;;
23360;SDS011;11852;50.082;18.554;2024-02-14T04:12:44;45.3;;;28.7;;
23360;SDS011;11852;50.082;18.554;2024-02-14T04:14:47;45.3;;;28.7;;
23360;SDS011;11852;50.082;18.554;2024-02-14T04:16:41;45.3;;;28.7;;
23360;SDS011;11852;50.082;18.554;2024-02-14T04:17:44;45.3;;;28.7;;
23360;SDS011;11852;50.082;18.554;2024-02-14T04:19:47;45.3;;;28.7;;
23360;SDS011;11852;50.082;18.554;2024-02-14T04:21:16;45.3;;;30.0;;
23360;SDS011;11852;50.082;18.554;2024-02-14T04:22:21;48.0;;;30.0;;
23360;SDS011;11852;50.082;18.554;2024-02-14T04:23:26;48.7;;;29.2;;
23360;SDS011;11852;50.082;18.554;2024-02-14T04:24:33;50.1;;;30.6;;
23360;SDS011;11852;50.082;18.554;2024-02-14T04:25:36;48.0;;;30.5;;
23360;SDS011;11852;50.082;18.554;2024-02-14T04:26:40;53.2;;;32.2;;
23360;SDS011;11852;50.082;18.554;2024-02-14T04:27:45;53.4;;;29.8;;
23360;SDS011;11852;50.082;18.554;2024-02-14T04:28:50;51.6;;;31.3;;
23360;SDS011;11852;50.082;18.554;2024-02-14T04:29:55;51.8;;;31.3;;
23360;SDS011;11852;50.082;18.554;2024-02-14T04:30:59;55.4;;;33.7;;
23360;SDS011;11852;50.082;18.554;2024-02-14T04:32:04;54.3;;;32.1;;
23360;SDS011;11852;50.082;18.554;2024-02-14T04:33:09;54.6;;;34.0;;
23360;SDS011;11852;50.082;18.554;2024-02-14T04:34:17;53.7;;;31.5;;
23360;SDS011;11852;50.082;18.554;2024-02-14T04:35:25;52.1;;;31.9;;
23360;SDS011;11852;50.082;18.554;2024-02-14T04:36:29;54.3;;;31.7;;
23360;SDS011;11852;50.082;18.554;2024-02-14T04:37:34;48.8;;;30.4;;
23360;SDS011;11852;50.082;18.554;2024-02-14T04:38:40;49.6;;;30.9;;
23360;SDS011;11852;50.082;18.554;2024-02-14T04:39:45;46.4;;;29.0;;
23360;SDS011;11852;50.082;18.554;2024-02-14T04:40:50;49.7;;;30.6;;
23360;SDS011;11852;50.082;18.554;2024-02-14T04:41:55;44.4;;;27.5;;
23360;SDS011;11852;50.082;18.554;2024-02-14T04:43:00;45.3;;;29.0;;
23360;SDS011;11852;50.082;18.554;2024-02-14T04:44:07;48.3;;;29.5;;
23360;SDS011;11852;50.082;18.554;2024-02-14T04:45:12;46.2;;;27.8;;
23360;SDS011;11852;50.082;18.554;2024-02-14T04:46:17;48.4;;;28.8;;
23360;SDS011;11852;50.082;18.554;2024-02-14T04:47:22;46.0;;;28.0;;
23360;SDS011;11852;50.082;18.554;2024-02-14T04:48:27;45.3;;;27.6;;
23360;SDS011;11852;50.082;18.554;2024-02-14T04:49:32;47.6;;;28.8;;
23360;SDS011;11852;50.082;18.554;2024-02-14T04:50:37;50.1;;;29.4;;
23360;SDS011;11852;50.082;18.554;2024-02-14T04:51:42;47.2;;;29.1;;
23360;SDS011;11852;50.082;18.554;2024-02-14T04:52:47;46.3;;;28.9;;
23360;SDS011;11852;50.082;18.554;2024-02-14T04:53:52;46.5;;;27.0;;
23360;SDS011;11852;50.082;18.554;2024-02-14T04:54:57;46.3;;;29.7;;
23360;SDS011;11852;50.082;18.554;2024-02-14T04:56:02;47.8;;;29.3;;
23360;SDS011;11852;50.082;18.554;2024-02-14T04:57:07;43.4;;;27.3;;
23360;SDS011;11852;50.082;18.554;2024-02-14T04:58:12;47.4;;;29.0;;
23360;SDS011;11852;50.082;18.554;2024-02-14T04:59:17;49.3;;;30.3;;
23360;SDS011;11852;50.082;18.554;2024-02-14T05:00:22;45.2;;;28.6;;
23360;SDS011;11852;50.082;18.554;2024-02-14T05:01:27;45.2;;;27.7;;
23360;SDS011;11852;50.082;18.554;2024-02-14T05:02:32;44.1;;;27.8;;
23360;SDS011;11852;50.082;18.554;2024-02-14T05:03:37;45.7;;;29.6;;
23360;SDS011;11852;50.082;18.554;2024-02-14T05:04:42;43.5;;;28.1;;
23360;SDS011;11852;50.082;18.554;2024-02-14T05:05:47;44.0;;;26.6;;
23360;SDS011;11852;50.082;18.554;2024-02-14T05:06:52;45.8;;;27.9;;
23360;SDS011;11852;50.082;18.554;2024-02-14T05:07:57;42.7;;;26.8;;
23360;SDS011;11852;50.082;18.554;2024-02-14T05:09:02;43.2;;;26.3;;
23360;SDS011;11852;50.082;18.554;2024-02-14T05:10:07;43.1;;;27.0;;
23360;SDS011;11852;50.082;18.554;2024-02-14T05:11:13;45.9;;;27.6;;
23360;SDS011;11852;50.082;18.554;2024-02-14T05:12:18;43.1;;;26.9;;
23360;SDS011;11852;50.082;18.554;2024-02-14T05:13:23;42.8;;;25.8;;
23360;SDS011;11852;50.082;18.554;2024-02-14T05:14:31;48.3;;;28.0;;
23360;SDS011;11852;50.082;18.554;2024-02-14T05:15:36;42.6;;;27.2;;
23360;SDS011;11852;50.082;18.554;2024-02-14T05:16:41;40.6;;;25.7;;
23360;SDS011;11852;50.082;18.554;2024-02-14T05:17:46;44.7;;;27.4;;
23360;SDS011;11852;50.082;18.554;2024-02-14T05:18:51;42.7;;;26.2;;
23360;SDS011;11852;50.082;18.554;2024-02-14T05:19:57;45.0;;;27.2;;
23360;SDS011;11852;50.082;18.554;2024-02-14T05:21:04;42.5;;;26.4;;
23360;SDS011;11852;50.082;18.554;2024-02-14T05:22:07;43.4;;;25.5;;
23360;SDS011;11852;50.082;18.554;2024-02-14T05:23:12;44.9;;;27.5;;
23360;SDS011;11852;50.082;18.554;2024-02-14T05:24:17;42.4;;;26.8;;
23360;SDS011;11852;50.082;18.554;2024-02-14T05:25:25;41.4;;;26.0;;
23360;SDS011;11852;50.082;18.554;2024-02-14T05:26:30;40.8;;;25.1;;
23360;SDS011;11852;50.082;18.554;2024-02-14T05:27:35;45.2;;;26.9;;
23360;SDS011;11852;50.082;18.554;2024-02-14T05:28:40;41.5;;;27.5;;
23360;SDS011;11852;50.082;18.554;2024-02-14T05:29:45;46.0;;;27.1;;
23360;SDS011;11852;50.082;18.554;2024-02-14T05:30:50;40.9;;;25.8;;
23360;SDS011;11852;50.082;18.554;2024-02-14T05:31:55;44.8;;;26.7;;
23360;SDS011;11852;50.082;18.554;2024-02-14T05:33:00;46.4;;;28.3;;
23360;SDS011;11852;50.082;18.554;2024-02-14T05:34:05;46.7;;;28.3;;
23360;SDS011;11852;50.082;18.554;2024-02-14T05:35:10;44.3;;;26.3;;
23360;SDS011;11852;50.082;18.554;2024-02-14T05:36:15;42.7;;;27.2;;
23360;SDS011;11852;50.082;18.554;2024-02-14T05:37:23;44.4;;;28.7;;
23360;SDS011;11852;50.082;18.554;2024-02-14T05:38:28;41.7;;;25.0;;
23360;SDS011;11852;50.082;18.554;2024-02-14T05:39:33;40.1;;;25.9;;
23360;SDS011;11852;50.082;18.554;2024-02-14T05:40:38;41.4;;;26.2;;
23360;SDS011;11852;50.082;18.554;2024-02-14T05:41:45;42.4;;;26.5;;
23360;SDS011;11852;50.082;18.554;2024-02-14T05:42:50;40.4;;;25.6;;
23360;SDS011;11852;50.082;18.554;2024-02-14T05:43:55;38.8;;;23.2;;
23360;SDS011;11852;50.082;18.554;2024-02-14T05:45:00;36.5;;;24.1;;
23360;SDS011;11852;50.082;18.554;2024-02-14T05:46:05;35.8;;;22.7;;
23360;SDS011;11852;50.082;18.554;2024-02-14T05:47:10;38.7;;;25.1;;
23360;SDS011;11852;50.082;18.554;2024-02-14T05:48:19;38.5;;;23.4;;
23360;SDS011;11852;50.082;18.554;2024-02-14T05:49:23;38.0;;;23.5;;
23360;SDS011;11852;50.082;18.554;2024-02-14T05:50:28;39.2;;;24.1;;
23360;SDS011;11852;50.082;18.554;2024-02-14T05:51:33;39.9;;;23.6;;
23360;SDS011;11852;50.082;18.554;2024-02-14T05:52:38;35.8;;;23.4;;
23360;SDS011;11852;50.082;18.554;2024-02-14T05:53:43;39.3;;;24.0;;
23360;SDS011;11852;50.082;18.554;2024-02-14T05:54:48;36.4;;;24.3;;
23360;SDS011;11852;50.082;18.554;2024-02-14T05:55:53;40.5;;;25.0;;
23360;SDS011;11852;50.082;18.554;2024-02-14T05:56:57;39.4;;;24.8;;
23360;SDS011;11852;50.082;18.554;2024-02-14T05:58:05;39.8;;;25.0;;
23360;SDS011;11852;50.082;18.554;2024-02-14T05:59:10;39.8;;;25.0;;
23360;SDS011;11852;50.082;18.554;2024-02-14T06:00:15;36.1;;;22.4;;
23360;SDS011;11852;50.082;18.554;2024-02-14T06:01:20;36.9;;;22.8;;
23360;SDS011;11852;50.082;18.554;2024-02-14T06:02:25;38.4;;;23.7;;
23360;SDS011;11852;50.082;18.554;2024-02-14T06:03:30;35.0;;;22.1;;
23360;SDS011;11852;50.082;18.554;2024-02-14T06:04:35;40.1;;;23.9;;
23360;SDS011;11852;50.082;18.554;2024-02-14T06:05:40;40.1;;;25.3;;
23360;SDS011;11852;50.082;18.554;2024-02-14T06:06:45;36.9;;;23.9;;
23360;SDS011;11852;50.082;18.554;2024-02-14T06:07:50;37.3;;;24.1;;
23360;SDS011;11852;50.082;18.554;2024-02-14T06:08:55;38.9;;;23.6;;
23360;SDS011;11852;50.082;18.554;2024-02-14T06:10:00;34.8;;;21.6;;
23360;SDS011;11852;50.082;18.554;2024-02-14T06:11:05;35.5;;;21.6;;
23360;SDS011;11852;50.082;18.554;2024-02-14T06:12:09;34.4;;;22.4;;
23360;SDS011;11852;50.082;18.554;2024-02-14T06:13:15;37.2;;;22.5;;
23360;SDS011;11852;50.082;18.554;2024-02-14T06:14:19;37.0;;;24.2;;
23360;SDS011;11852;50.082;18.554;2024-02-14T06:15:24;34.8;;;21.9;;
23360;SDS011;11852;50.082;18.554;2024-02-14T06:16:30;32.4;;;20.3;;
23360;SDS011;11852;50.082;18.554;2024-02-14T06:17:35;34.2;;;22.2;;
23360;SDS011;11852;50.082;18.554;2024-02-14T06:18:40;35.9;;;22.6;;
23360;SDS011;11852;50.082;18.554;2024-02-14T06:19:45;34.7;;;22.4;;
23360;SDS011;11852;50.082;18.554;2024-02-14T06:20:50;36.3;;;22.5;;
23360;SDS011;11852;50.082;18.554;2024-02-14T06:21:55;38.6;;;23.4;;
23360;SDS011;11852;50.082;18.554;2024-02-14T06:23:00;38.8;;;22.8;;
23360;SDS011;11852;50.082;18.554;2024-02-14T06:24:05;35.5;;;22.8;;
23360;SDS011;11852;50.082;18.554;2024-02-14T06:25:10;35.5;;;22.8;;
23360;SDS011;11852;50.082;18.554;2024-02-14T06:26:15;35.5;;;22.8;;
23360;SDS011;11852;50.082;18.554;2024-02-14T06:27:20;38.3;;;23.7;;
23360;SDS011;11852;50.082;18.554;2024-02-14T06:28:25;43.5;;;23.4;;
23360;SDS011;11852;50.082;18.554;2024-02-14T06:29:30;39.8;;;22.8;;
23360;SDS011;11852;50.082;18.554;2024-02-14T06:30:35;43.2;;;25.5;;